TimeCDT,TemperatureF,Dew PointF,Humidity,Sea Level PressureIn,VisibilityMPH,Wind Direction,Wind SpeedMPH,Gust SpeedMPH,PrecipitationIn,Events,Conditions,WindDirDegrees,DateUTC
12:53 AM,46.9,42.1,83,29.88,10.0,NW,8.1,-,N/A,,Overcast,310,2013-05-22 05:53:00
1:19 AM,46.4,41.0,81,29.88,10.0,NW,11.5,-,N/A,,Scattered Clouds,320,2013-05-22 06:19:00
1:53 AM,46.9,41.0,80,29.86,10.0,NW,10.4,-,N/A,,Mostly Cloudy,320,2013-05-22 06:53:00
2:53 AM,48.0,41.0,77,29.86,10.0,NNW,9.2,-,N/A,,Overcast,340,2013-05-22 07:53:00
3:53 AM,48.0,41.0,77,29.89,10.0,NW,15.0,19.6,N/A,,Overcast,320,2013-05-22 08:53:00
4:53 AM,48.0,41.0,77,29.91,10.0,NNW,10.4,-,N/A,,Overcast,330,2013-05-22 09:53:00
5:53 AM,48.0,42.1,80,29.91,10.0,NNW,11.5,-,N/A,,Overcast,330,2013-05-22 10:53:00
6:53 AM,48.0,42.1,80,29.92,10.0,NNW,10.4,-,N/A,,Overcast,330,2013-05-22 11:53:00
7:53 AM,48.9,42.1,77,29.92,10.0,NW,12.7,-,N/A,,Overcast,320,2013-05-22 12:53:00
8:45 AM,51.8,44.6,76,29.94,10.0,NW,11.5,18.4,N/A,,Overcast,320,2013-05-22 13:45:00
8:53 AM,51.1,44.1,77,29.93,10.0,NW,15.0,19.6,N/A,,Overcast,320,2013-05-22 13:53:00
9:48 AM,55.4,44.6,67,29.94,10.0,NNW,16.1,23.0,N/A,,Overcast,330,2013-05-22 14:48:00
9:53 AM,55.0,44.1,67,29.93,10.0,NNW,15.0,23.0,N/A,,Mostly Cloudy,330,2013-05-22 14:53:00
10:53 AM,57.9,45.0,62,29.92,10.0,NW,13.8,19.6,N/A,,Overcast,320,2013-05-22 15:53:00
11:16 AM,60.8,44.6,55,29.93,10.0,North,13.8,23.0,N/A,,Mostly Cloudy,350,2013-05-22 16:16:00
11:53 AM,62.1,46.0,56,29.91,10.0,NNW,18.4,24.2,N/A,,Partly Cloudy,340,2013-05-22 16:53:00
12:53 PM,64.9,46.9,52,29.91,10.0,NNW,11.5,20.7,N/A,,Partly Cloudy,330,2013-05-22 17:53:00
1:53 PM,66.9,48.0,51,29.90,10.0,WNW,9.2,20.7,N/A,,Mostly Cloudy,300,2013-05-22 18:53:00
2:53 PM,68.0,48.0,49,29.90,10.0,NW,11.5,25.3,N/A,,Mostly Cloudy,310,2013-05-22 19:53:00
3:53 PM,66.0,46.9,50,29.89,10.0,North,15.0,20.7,N/A,,Overcast,350,2013-05-22 20:53:00
4:53 PM,66.9,48.0,51,29.90,10.0,North,11.5,-,N/A,,Mostly Cloudy,350,2013-05-22 21:53:00
5:53 PM,64.9,46.0,50,29.93,10.0,NNE,15.0,-,N/A,,Overcast,20,2013-05-22 22:53:00
6:53 PM,64.0,46.9,54,29.94,10.0,North,18.4,23.0,N/A,,Partly Cloudy,10,2013-05-22 23:53:00
7:53 PM,60.1,46.0,60,29.97,10.0,North,16.1,-,N/A,,Clear,10,2013-05-23 00:53:00
8:53 PM,55.9,46.0,69,30.01,10.0,NNE,10.4,-,N/A,,Clear,30,2013-05-23 01:53:00
9:24 PM,53.6,44.6,72,30.04,10.0,NNE,13.8,-,N/A,,Mostly Cloudy,20,2013-05-23 02:24:00
9:53 PM,53.1,45.0,74,30.04,10.0,NNE,12.7,-,N/A,,Partly Cloudy,20,2013-05-23 02:53:00
10:34 PM,53.6,44.6,72,30.08,10.0,NNE,13.8,-,N/A,,Mostly Cloudy,20,2013-05-23 03:34:00
10:53 PM,53.1,45.0,74,30.08,10.0,North,10.4,-,N/A,,Overcast,360,2013-05-23 03:53:00
11:53 PM,53.1,44.1,71,30.08,10.0,NNE,10.4,-,N/A,,Overcast,20,2013-05-23 04:53:00